Time;durP1;ratioP1;P1;durP2;ratioP2;P2;SDS_P1;SDS_P2;PMS_P1;PMS_P2;Temp;Humidity;BMP_temperature;BMP_pressure;BME280_temperature;BME280_humidity;BME280_pressure;Samples;Min_cycle;Max_cycle;Signal;HPM_P1;HPM_P2
2022/01/28 00:02:35;;;;;;;9.45;7.68;;;;;;;;;;5102320;28;20219;-67
2022/01/28 00:05:04;;;;;;;9.77;7.53;;;;;;;;;;5101477;28;20196;-68
2022/01/28 00:07:30;;;;;;;8.48;7.30;;;;;;;;;;5101789;28;20241;-69
2022/01/28 00:09:57;;;;;;;10.80;8.35;;;;;;;;;;5101790;28;20196;-68
2022/01/28 00:12:25;;;;;;;8.10;7.35;;;;;;;;;;5102126;28;20242;-68
2022/01/28 00:14:56;;;;;;;10.18;8.50;;;;;;;;;;5101935;28;20553;-68
2022/01/28 00:36:46;;;;;;;9.98;8.32;;;;;;;;;;5101724;28;20187;-68
2022/01/28 00:39:12;;;;;;;8.65;7.47;;;;;;;;;;5101380;28;20198;-68
2022/01/28 00:41:39;;;;;;;9.18;8.23;;;;;;;;;;5101309;28;20470;-68
2022/01/28 00:44:05;;;;;;;8.30;7.43;;;;;;;;;;5102422;28;20192;-68
2022/01/28 00:46:32;;;;;;;9.05;8.15;;;;;;;;;;5104945;28;20257;-68
2022/01/28 00:48:58;;;;;;;9.63;8.07;;;;;;;;;;5105914;28;20196;-68
2022/01/28 00:51:25;;;;;;;8.40;7.70;;;;;;;;;;5105285;28;20241;-68
2022/01/28 00:53:52;;;;;;;8.02;7.28;;;;;;;;;;5105383;28;20196;-67
2022/01/28 00:56:19;;;;;;;8.60;7.55;;;;;;;;;;5104843;28;20192;-67
2022/01/28 00:58:45;;;;;;;10.10;8.57;;;;;;;;;;5104867;28;20242;-67
2022/01/28 01:01:12;;;;;;;9.52;8.48;;;;;;;;;;5104731;28;20233;-67
2022/01/28 01:03:38;;;;;;;8.57;7.63;;;;;;;;;;5104830;28;20210;-67
2022/01/28 01:06:04;;;;;;;8.30;6.50;;;;;;;;;;5104736;28;20223;-67
2022/01/28 01:08:31;;;;;;;9.40;7.00;;;;;;;;;;5104780;28;20456;-67
2022/01/28 01:10:59;;;;;;;7.90;6.57;;;;;;;;;;5104532;28;20505;-67
2022/01/28 01:13:25;;;;;;;6.93;6.32;;;;;;;;;;5104821;28;20429;-67
2022/01/28 01:15:57;;;;;;;7.50;6.13;;;;;;;;;;5104582;28;20245;-68
2022/01/28 01:18:28;;;;;;;8.52;6.32;;;;;;;;;;5104827;28;20513;-67
2022/01/28 01:21:02;;;;;;;10.80;6.03;;;;;;;;;;5104700;28;20196;-68
2022/01/28 01:23:31;;;;;;;6.03;5.50;;;;;;;;;;5104755;28;20233;-68
2022/01/28 01:26:07;;;;;;;5.78;5.18;;;;;;;;;;5104332;28;20226;-68
2022/01/28 01:28:37;;;;;;;6.70;5.50;;;;;;;;;;5104576;28;20202;-69
2022/01/28 01:31:05;;;;;;;7.93;5.50;;;;;;;;;;5104231;28;20218;-68
2022/01/28 01:33:36;;;;;;;6.95;5.38;;;;;;;;;;5104314;28;20202;-67
2022/01/28 01:36:03;;;;;;;11.88;4.88;;;;;;;;;;5104669;28;20423;-67
2022/01/28 01:38:33;;;;;;;5.35;4.85;;;;;;;;;;5104419;28;20187;-68
2022/01/28 01:41:03;;;;;;;6.72;5.20;;;;;;;;;;5104024;28;20246;-68
2022/01/28 01:43:43;;;;;;;6.25;4.60;;;;;;;;;;5104351;28;20196;-67
2022/01/28 01:46:20;;;;;;;4.38;4.00;;;;;;;;;;5103939;28;20219;-68
2022/01/28 01:54:14;;;;;;;7.10;4.95;;;;;;;;;;5104377;28;20438;-68
2022/01/28 01:56:42;;;;;;;5.38;4.97;;;;;;;;;;5103750;28;20380;-68
2022/01/28 01:59:09;;;;;;;5.10;4.60;;;;;;;;;;5103725;28;20199;-68
2022/01/28 02:01:36;;;;;;;5.28;4.50;;;;;;;;;;5103914;28;20196;-68
2022/01/28 02:04:02;;;;;;;6.47;4.97;;;;;;;;;;5103888;28;20452;-68
2022/01/28 02:06:28;;;;;;;6.13;4.88;;;;;;;;;;5103756;28;20284;-68
2022/01/28 02:08:55;;;;;;;5.13;4.68;;;;;;;;;;5103745;28;20200;-68
2022/01/28 02:11:21;;;;;;;5.78;5.05;;;;;;;;;;5103702;28;20196;-68
2022/01/28 02:13:50;;;;;;;5.25;4.80;;;;;;;;;;5103854;28;20219;-68
2022/01/28 02:16:17;;;;;;;5.22;4.82;;;;;;;;;;5103343;28;20382;-68
2022/01/28 02:18:43;;;;;;;6.05;4.53;;;;;;;;;;5103589;28;20465;-68
2022/01/28 02:21:14;;;;;;;5.63;5.13;;;;;;;;;;5103638;28;20196;-67
2022/01/28 02:23:42;;;;;;;5.43;4.63;;;;;;;;;;5103666;28;20392;-67
2022/01/28 02:26:13;;;;;;;5.05;4.47;;;;;;;;;;5103346;28;20223;-67
2022/01/28 02:28:41;;;;;;;5.82;5.00;;;;;;;;;;5103195;28;20203;-67
2022/01/28 02:31:07;;;;;;;4.28;3.97;;;;;;;;;;5103069;28;20231;-67
2022/01/28 02:33:34;;;;;;;5.05;4.53;;;;;;;;;;5103470;28;20572;-67
2022/01/28 02:36:04;;;;;;;5.00;4.60;;;;;;;;;;5103353;28;20245;-67
2022/01/28 02:38:32;;;;;;;6.18;4.55;;;;;;;;;;5103108;28;20495;-68
2022/01/28 02:41:01;;;;;;;5.70;4.97;;;;;;;;;;5102853;28;20202;-68
2022/01/28 02:43:34;;;;;;;5.05;4.20;;;;;;;;;;5103045;28;20547;-68
2022/01/28 02:46:08;;;;;;;5.20;4.68;;;;;;;;;;5103435;28;20372;-68
2022/01/28 02:48:37;;;;;;;8.00;4.68;;;;;;;;;;5103188;28;20203;-68
2022/01/28 02:51:10;;;;;;;4.40;4.15;;;;;;;;;;5102693;28;20430;-68
2022/01/28 02:53:41;;;;;;;5.70;5.20;;;;;;;;;;5101759;28;20263;-68
2022/01/28 02:56:15;;;;;;;6.32;5.70;;;;;;;;;;5102963;28;20229;-68
2022/01/28 02:58:41;;;;;;;7.75;5.35;;;;;;;;;;5103094;28;20572;-68
2022/01/28 03:01:08;;;;;;;7.65;5.50;;;;;;;;;;5102415;28;20187;-67
2022/01/28 03:03:34;;;;;;;6.18;5.32;;;;;;;;;;5102663;28;20240;-68
2022/01/28 03:06:01;;;;;;;6.07;5.10;;;;;;;;;;5102141;28;20224;-68
2022/01/28 03:08:29;;;;;;;5.65;4.75;;;;;;;;;;5102341;28;20196;-68
2022/01/28 03:11:23;;;;;;;5.80;5.18;;;;;;;;;;5102380;28;20238;-68
2022/01/28 03:16:37;;;;;;;5.60;5.10;;;;;;;;;;5102413;28;20541;-68
2022/01/28 03:19:15;;;;;;;7.22;5.10;;;;;;;;;;5102538;28;20503;-68
2022/01/28 03:21:44;;;;;;;5.20;4.68;;;;;;;;;;5102183;28;20499;-67
2022/01/28 03:24:12;;;;;;;6.35;5.13;;;;;;;;;;5102780;28;20195;-68
2022/01/28 03:26:40;;;;;;;6.05;4.55;;;;;;;;;;5102000;28;20412;-67
2022/01/28 03:29:08;;;;;;;5.85;4.97;;;;;;;;;;5102713;28;20424;-67
2022/01/28 03:31:38;;;;;;;5.75;5.25;;;;;;;;;;5101983;28;20195;-67
2022/01/28 03:34:04;;;;;;;6.30;4.80;;;;;;;;;;5102367;28;20491;-68
2022/01/28 03:36:31;;;;;;;5.45;4.95;;;;;;;;;;5102047;28;20367;-68
2022/01/28 03:38:57;;;;;;;5.22;4.72;;;;;;;;;;5102210;28;20203;-68
2022/01/28 03:41:24;;;;;;;5.10;4.65;;;;;;;;;;5101879;28;20215;-68
2022/01/28 03:43:57;;;;;;;5.85;4.38;;;;;;;;;;5102375;28;20223;-68
2022/01/28 03:46:24;;;;;;;5.85;4.85;;;;;;;;;;5102099;28;20279;-68
2022/01/28 03:48:50;;;;;;;6.00;4.95;;;;;;;;;;5101931;28;20196;-68
2022/01/28 03:51:17;;;;;;;5.95;4.75;;;;;;;;;;5101757;28;20463;-68
2022/01/28 03:53:43;;;;;;;4.85;4.45;;;;;;;;;;5101897;28;20203;-68
2022/01/28 03:56:10;;;;;;;5.95;4.85;;;;;;;;;;5101972;28;20343;-68
2022/01/28 03:58:36;;;;;;;5.07;4.57;;;;;;;;;;5101915;28;20195;-68
2022/01/28 04:01:09;;;;;;;4.93;4.43;;;;;;;;;;5101711;28;20383;-67
2022/01/28 04:03:47;;;;;;;4.70;4.35;;;;;;;;;;5102176;28;20499;-67
2022/01/28 04:11:53;;;;;;;4.78;3.95;;;;;;;;;;5101809;28;20256;-68
2022/01/28 04:14:35;;;;;;;8.57;4.80;;;;;;;;;;5101881;28;20196;-68
2022/01/28 04:17:21;;;;;;;6.15;4.78;;;;;;;;;;5102461;28;20198;-68
2022/01/28 04:19:49;;;;;;;6.65;5.18;;;;;;;;;;5105950;28;20200;-68
2022/01/28 04:22:15;;;;;;;4.53;4.05;;;;;;;;;;5105587;28;20399;-68
2022/01/28 04:24:41;;;;;;;8.23;4.80;;;;;;;;;;5105850;28;20195;-68
2022/01/28 04:27:08;;;;;;;16.30;8.40;;;;;;;;;;5105433;28;20215;-68
2022/01/28 04:29:34;;;;;;;4.45;4.15;;;;;;;;;;5105515;28;20195;-67
2022/01/28 04:32:01;;;;;;;6.55;4.70;;;;;;;;;;5105461;28;20196;-68
2022/01/28 04:34:29;;;;;;;4.82;4.45;;;;;;;;;;5105569;28;20196;-68
2022/01/28 04:37:04;;;;;;;5.82;4.88;;;;;;;;;;5105301;28;20234;-68
2022/01/28 04:39:37;;;;;;;7.40;5.18;;;;;;;;;;5105267;28;20203;-68
2022/01/28 04:42:12;;;;;;;5.18;4.68;;;;;;;;;;5105267;28;20566;-68
2022/01/28 04:44:49;;;;;;;4.75;4.35;;;;;;;;;;5105613;28;20199;-68
2022/01/28 04:47:21;;;;;;;5.80;4.05;;;;;;;;;;5104980;28;20227;-68
2022/01/28 04:49:59;;;;;;;8.77;4.82;;;;;;;;;;5105545;28;20214;-68
2022/01/28 04:55:33;;;;;;;6.18;4.20;;;;;;;;;;5068579;28;20187;-68
2022/01/28 04:58:12;;;;;;;5.03;4.55;;;;;;;;;;5104791;28;20382;-68
2022/01/28 05:00:49;;;;;;;6.10;4.72;;;;;;;;;;5104968;28;20597;-68
2022/01/28 05:03:32;;;;;;;6.43;4.45;;;;;;;;;;5104835;28;20192;-68
2022/01/28 05:06:31;;;;;;;4.53;4.13;;;;;;;;;;5104901;28;20222;-68
2022/01/28 05:12:20;;;;;;;4.90;4.50;;;;;;;;;;5093772;28;20448;-68
2022/01/28 05:25:49;;;;;;;5.13;4.68;;;;;;;;;;5104597;28;20253;-68
2022/01/28 05:28:18;;;;;;;4.78;4.30;;;;;;;;;;5104502;28;20223;-67
2022/01/28 05:30:45;;;;;;;5.93;4.82;;;;;;;;;;5103534;28;20545;-68
2022/01/28 05:33:11;;;;;;;5.47;4.88;;;;;;;;;;5104340;28;20203;-68
2022/01/28 05:35:38;;;;;;;7.75;5.97;;;;;;;;;;5104366;28;20196;-68
2022/01/28 05:38:06;;;;;;;8.05;5.70;;;;;;;;;;5103977;28;20200;-67
2022/01/28 05:40:32;;;;;;;7.35;4.97;;;;;;;;;;5103749;28;20199;-67
2022/01/28 05:42:59;;;;;;;7.15;5.40;;;;;;;;;;5104362;28;20556;-67
2022/01/28 05:45:25;;;;;;;5.97;5.35;;;;;;;;;;5103324;28;20206;-67
2022/01/28 05:47:51;;;;;;;11.43;6.05;;;;;;;;;;5104191;28;20216;-67
2022/01/28 05:50:18;;;;;;;10.77;5.95;;;;;;;;;;5103472;28;20223;-67
2022/01/28 05:52:44;;;;;;;10.45;7.43;;;;;;;;;;5104247;28;20226;-67
2022/01/28 05:55:12;;;;;;;8.57;7.07;;;;;;;;;;5103959;28;20203;-67
2022/01/28 05:57:38;;;;;;;10.98;6.85;;;;;;;;;;5103721;28;20194;-67
2022/01/28 06:00:06;;;;;;;8.52;5.70;;;;;;;;;;5103411;28;20511;-67
2022/01/28 06:02:32;;;;;;;9.35;6.63;;;;;;;;;;5103448;28;20196;-67
2022/01/28 06:04:58;;;;;;;7.78;5.90;;;;;;;;;;5103433;28;20196;-67
2022/01/28 06:07:25;;;;;;;9.30;6.57;;;;;;;;;;5103407;28;20230;-67
2022/01/28 06:09:51;;;;;;;7.72;5.38;;;;;;;;;;5103534;28;20199;-68
2022/01/28 06:12:20;;;;;;;6.65;5.60;;;;;;;;;;5103742;28;20203;-67
2022/01/28 06:14:46;;;;;;;7.93;6.03;;;;;;;;;;5103528;28;20250;-67
2022/01/28 06:17:13;;;;;;;5.70;5.20;;;;;;;;;;5103229;28;20192;-67
2022/01/28 06:19:39;;;;;;;8.15;6.00;;;;;;;;;;5102988;28;20192;-67
2022/01/28 06:22:06;;;;;;;10.48;5.60;;;;;;;;;;5103601;28;20211;-67
2022/01/28 06:24:32;;;;;;;7.00;5.60;;;;;;;;;;5103642;28;20419;-67
2022/01/28 06:26:58;;;;;;;6.50;5.70;;;;;;;;;;5103147;28;20533;-67
2022/01/28 06:29:26;;;;;;;7.85;6.05;;;;;;;;;;5103135;28;20198;-67
2022/01/28 06:31:53;;;;;;;6.15;5.47;;;;;;;;;;5102961;28;20204;-67
2022/01/28 06:34:19;;;;;;;7.85;5.45;;;;;;;;;;5103478;28;20196;-67
2022/01/28 06:36:45;;;;;;;9.85;5.97;;;;;;;;;;5102891;28;20196;-67
2022/01/28 06:39:12;;;;;;;6.30;5.65;;;;;;;;;;5102807;28;20386;-67
2022/01/28 06:41:38;;;;;;;7.22;5.45;;;;;;;;;;5102127;28;20203;-67
2022/01/28 06:44:05;;;;;;;8.38;5.93;;;;;;;;;;5103174;28;20203;-68
2022/01/28 06:46:33;;;;;;;7.57;5.80;;;;;;;;;;5102796;28;20195;-68
2022/01/28 06:48:59;;;;;;;8.55;6.32;;;;;;;;;;5102819;28;20227;-67
2022/01/28 06:51:26;;;;;;;9.77;6.68;;;;;;;;;;5103038;28;20560;-67
2022/01/28 06:53:52;;;;;;;8.25;6.30;;;;;;;;;;5103337;28;20205;-68
2022/01/28 06:56:19;;;;;;;11.00;6.80;;;;;;;;;;5102991;28;20203;-67
2022/01/28 06:58:45;;;;;;;9.27;7.45;;;;;;;;;;5099674;28;20195;-69
2022/01/28 07:01:12;;;;;;;8.25;6.90;;;;;;;;;;5097832;28;20264;-59
2022/01/28 07:03:40;;;;;;;10.35;7.32;;;;;;;;;;5094304;28;20208;-59
2022/01/28 07:06:06;;;;;;;13.20;7.30;;;;;;;;;;5097678;28;20227;-58
2022/01/28 07:08:33;;;;;;;7.15;6.45;;;;;;;;;;5097618;28;20407;-58
2022/01/28 07:10:59;;;;;;;8.57;6.80;;;;;;;;;;5093729;28;20208;-61
2022/01/28 07:13:26;;;;;;;8.93;6.40;;;;;;;;;;5095249;28;20199;-60
2022/01/28 07:15:52;;;;;;;6.88;5.93;;;;;;;;;;5096720;28;20362;-62
2022/01/28 07:18:19;;;;;;;8.00;6.28;;;;;;;;;;5087625;28;20403;-61
2022/01/28 07:20:47;;;;;;;7.40;6.05;;;;;;;;;;5096985;28;20233;-60
2022/01/28 07:23:13;;;;;;;8.80;7.00;;;;;;;;;;5097456;28;20541;-60
2022/01/28 07:25:39;;;;;;;11.05;7.03;;;;;;;;;;5096955;28;20203;-59
2022/01/28 07:28:06;;;;;;;12.68;7.60;;;;;;;;;;5096388;28;20463;-61
2022/01/28 07:30:32;;;;;;;17.98;7.32;;;;;;;;;;5096286;28;20218;-61
2022/01/28 07:33:00;;;;;;;79.40;10.02;;;;;;;;;;5096648;28;20245;-61
2022/01/28 07:35:27;;;;;;;13.52;7.10;;;;;;;;;;5097245;28;20208;-60
2022/01/28 07:37:54;;;;;;;12.25;6.68;;;;;;;;;;5096654;28;20245;-60
2022/01/28 07:40:21;;;;;;;13.10;8.15;;;;;;;;;;5096925;28;20208;-60
2022/01/28 07:42:47;;;;;;;17.33;6.47;;;;;;;;;;5096865;28;20230;-58
2022/01/28 07:45:15;;;;;;;16.20;6.68;;;;;;;;;;5097019;28;20211;-60
2022/01/28 07:47:41;;;;;;;16.63;6.68;;;;;;;;;;5097185;28;20223;-60
2022/01/28 07:50:09;;;;;;;16.95;6.07;;;;;;;;;;5098058;28;20253;-60
2022/01/28 07:52:35;;;;;;;11.73;6.75;;;;;;;;;;5097023;28;20208;-60
2022/01/28 07:55:03;;;;;;;12.60;7.63;;;;;;;;;;5101248;28;20511;-61
2022/01/28 07:57:30;;;;;;;9.55;6.45;;;;;;;;;;5100580;28;20248;-60
2022/01/28 07:59:57;;;;;;;9.98;6.63;;;;;;;;;;5100506;28;20207;-61
2022/01/28 08:02:23;;;;;;;10.77;6.60;;;;;;;;;;5100739;28;20456;-60
2022/01/28 08:04:50;;;;;;;10.85;6.65;;;;;;;;;;5100923;28;20214;-61
2022/01/28 08:07:16;;;;;;;11.32;5.82;;;;;;;;;;5107951;28;20464;-61
2022/01/28 08:09:43;;;;;;;11.00;6.68;;;;;;;;;;5121354;28;20217;-61
2022/01/28 08:12:11;;;;;;;11.15;6.80;;;;;;;;;;5107340;28;20211;-60
2022/01/28 08:14:37;;;;;;;11.10;6.68;;;;;;;;;;5101144;28;20260;-62
2022/01/28 08:17:04;;;;;;;24.35;8.00;;;;;;;;;;5100750;28;20511;-62
2022/01/28 08:19:30;;;;;;;11.73;7.28;;;;;;;;;;5099922;28;20200;-61
2022/01/28 08:21:57;;;;;;;9.65;6.88;;;;;;;;;;5100164;28;20261;-61
2022/01/28 08:24:23;;;;;;;10.55;7.70;;;;;;;;;;5099798;28;20253;-60
2022/01/28 08:26:49;;;;;;;7.00;6.07;;;;;;;;;;5099905;28;20249;-61
2022/01/28 08:29:17;;;;;;;11.75;6.78;;;;;;;;;;5099203;28;20592;-60
2022/01/28 08:31:44;;;;;;;13.07;6.80;;;;;;;;;;5099496;28;20215;-61
2022/01/28 08:34:10;;;;;;;10.82;6.65;;;;;;;;;;5099788;28;20515;-60
2022/01/28 08:36:37;;;;;;;19.17;6.90;;;;;;;;;;5100146;28;20214;-60
2022/01/28 08:39:05;;;;;;;9.63;6.03;;;;;;;;;;5099578;28;20243;-62
2022/01/28 08:41:32;;;;;;;19.73;6.55;;;;;;;;;;5100488;28;20208;-60
2022/01/28 08:43:59;;;;;;;12.10;6.30;;;;;;;;;;5100273;28;20212;-60
2022/01/28 08:46:26;;;;;;;8.70;5.95;;;;;;;;;;5100262;28;20211;-61
2022/01/28 08:48:53;;;;;;;16.88;6.22;;;;;;;;;;5099984;28;20231;-61
2022/01/28 08:51:20;;;;;;;15.27;6.75;;;;;;;;;;5099944;28;20207;-59
2022/01/28 08:53:46;;;;;;;9.52;6.00;;;;;;;;;;5099732;28;20274;-58
2022/01/28 08:56:13;;;;;;;17.90;6.75;;;;;;;;;;5099800;28;20571;-60
2022/01/28 08:58:40;;;;;;;10.95;5.70;;;;;;;;;;5099810;28;20200;-60
2022/01/28 09:01:06;;;;;;;13.50;6.50;;;;;;;;;;5099722;28;20215;-60
2022/01/28 09:03:34;;;;;;;10.05;6.55;;;;;;;;;;5099521;28;20208;-58
2022/01/28 09:06:00;;;;;;;12.98;6.65;;;;;;;;;;5096807;28;20282;-59
2022/01/28 09:08:27;;;;;;;8.05;5.55;;;;;;;;;;5088316;28;20227;-61
2022/01/28 09:11:18;;;;;;;9.77;5.57;;;;;;;;;;5099480;28;20211;-60
2022/01/28 09:13:44;;;;;;;7.13;5.00;;;;;;;;;;5099687;28;20207;-59
2022/01/28 09:16:11;;;;;;;11.35;5.30;;;;;;;;;;5099861;28;20214;-61
2022/01/28 09:18:39;;;;;;;14.20;6.82;;;;;;;;;;5099193;28;20211;-60
2022/01/28 09:21:06;;;;;;;7.22;5.22;;;;;;;;;;5098947;28;20262;-61
2022/01/28 09:23:32;;;;;;;17.67;6.60;;;;;;;;;;5099496;28;20214;-60
2022/01/28 09:25:59;;;;;;;11.48;5.57;;;;;;;;;;5099792;28;20261;-62
2022/01/28 09:28:25;;;;;;;7.93;4.72;;;;;;;;;;5099063;28;20603;-60
2022/01/28 09:30:52;;;;;;;7.80;4.38;;;;;;;;;;5099218;28;20214;-61
2022/01/28 09:33:20;;;;;;;8.43;4.75;;;;;;;;;;5099374;28;20211;-61
2022/01/28 09:35:48;;;;;;;6.05;4.50;;;;;;;;;;5099424;28;20408;-61
2022/01/28 09:38:15;;;;;;;9.48;4.78;;;;;;;;;;5098684;28;20203;-61
2022/01/28 09:40:41;;;;;;;8.00;4.72;;;;;;;;;;5098682;28;20327;-61
2022/01/28 09:43:08;;;;;;;9.57;4.57;;;;;;;;;;5099090;28;20207;-61
2022/01/28 09:45:35;;;;;;;7.88;4.53;;;;;;;;;;5098555;28;20218;-59
2022/01/28 09:48:02;;;;;;;7.50;4.22;;;;;;;;;;5098568;28;20207;-61
2022/01/28 09:50:29;;;;;;;7.72;4.40;;;;;;;;;;5098484;28;20207;-62
2022/01/28 09:52:58;;;;;;;6.32;4.05;;;;;;;;;;5098924;28;20208;-60
2022/01/28 09:55:25;;;;;;;8.63;3.85;;;;;;;;;;5099089;28;20522;-60
2022/01/28 09:57:52;;;;;;;6.25;3.65;;;;;;;;;;5098493;28;20419;-61
2022/01/28 10:00:22;;;;;;;10.38;4.40;;;;;;;;;;5098451;28;20421;-61
2022/01/28 10:02:50;;;;;;;8.25;3.28;;;;;;;;;;5098872;28;20535;-61
2022/01/28 10:05:21;;;;;;;13.05;3.33;;;;;;;;;;5098849;28;20594;-61
2022/01/28 10:08:02;;;;;;;8.45;3.20;;;;;;;;;;5098774;28;20206;-60
2022/01/28 10:10:40;;;;;;;6.15;2.63;;;;;;;;;;5078306;28;20209;-60
2022/01/28 10:13:12;;;;;;;5.40;2.92;;;;;;;;;;5077922;28;20512;-61
2022/01/28 10:15:51;;;;;;;3.67;2.47;;;;;;;;;;5078094;28;20263;-60
2022/01/28 10:18:18;;;;;;;7.57;2.63;;;;;;;;;;5081075;28;20249;-58
2022/01/28 10:20:45;;;;;;;9.13;2.97;;;;;;;;;;5098265;28;20572;-60
2022/01/28 10:23:14;;;;;;;5.60;1.98;;;;;;;;;;5098246;28;20214;-60
2022/01/28 10:25:42;;;;;;;9.80;2.65;;;;;;;;;;5098605;28;20207;-58
2022/01/28 10:28:09;;;;;;;5.78;2.47;;;;;;;;;;5097760;28;20237;-60
2022/01/28 10:30:36;;;;;;;12.75;3.28;;;;;;;;;;5097746;28;20230;-61
2022/01/28 10:33:14;;;;;;;9.63;2.60;;;;;;;;;;5098098;28;20215;-62
2022/01/28 10:35:46;;;;;;;8.65;2.17;;;;;;;;;;5097943;28;20208;-62
2022/01/28 10:38:27;;;;;;;7.18;2.03;;;;;;;;;;5097989;28;20214;-60
2022/01/28 10:41:05;;;;;;;8.35;2.83;;;;;;;;;;5097444;28;20207;-59
2022/01/28 10:43:32;;;;;;;5.35;1.73;;;;;;;;;;5097888;28;20208;-61
2022/01/28 10:46:04;;;;;;;8.68;1.80;;;;;;;;;;5097843;28;20208;-60
2022/01/28 10:48:30;;;;;;;6.15;1.95;;;;;;;;;;5097136;28;20551;-60
2022/01/28 10:50:58;;;;;;;7.15;2.00;;;;;;;;;;5097762;28;20415;-61
2022/01/28 10:53:27;;;;;;;3.83;2.20;;;;;;;;;;5098001;28;20397;-60
2022/01/28 10:55:57;;;;;;;1.50;1.40;;;;;;;;;;5097802;28;20214;-62
2022/01/28 10:58:25;;;;;;;9.43;1.67;;;;;;;;;;5097367;28;20212;-62
2022/01/28 11:00:53;;;;;;;8.95;2.10;;;;;;;;;;5097451;28;20214;-61
2022/01/28 11:03:26;;;;;;;6.03;1.77;;;;;;;;;;5097786;28;20534;-60
2022/01/28 11:05:54;;;;;;;5.28;1.90;;;;;;;;;;5097415;28;20223;-62
2022/01/28 11:08:20;;;;;;;9.18;2.25;;;;;;;;;;5096715;28;20211;-61
2022/01/28 11:10:48;;;;;;;5.35;1.90;;;;;;;;;;5097198;28;20214;-60
2022/01/28 11:13:15;;;;;;;5.00;2.00;;;;;;;;;;5097292;28;20208;-61
2022/01/28 11:15:41;;;;;;;8.25;2.25;;;;;;;;;;5097515;28;20245;-62
2022/01/28 11:18:09;;;;;;;6.00;2.33;;;;;;;;;;5096913;28;20200;-62
2022/01/28 11:20:38;;;;;;;8.30;2.20;;;;;;;;;;5096958;28;20515;-62
2022/01/28 11:23:09;;;;;;;7.90;2.08;;;;;;;;;;5088585;28;20212;-62
2022/01/28 11:25:44;;;;;;;6.70;1.60;;;;;;;;;;5097125;28;20214;-62
2022/01/28 11:28:13;;;;;;;5.35;2.10;;;;;;;;;;5096502;28;20234;-62
2022/01/28 11:30:45;;;;;;;6.00;1.80;;;;;;;;;;5097007;28;20289;-62
2022/01/28 11:33:12;;;;;;;5.45;2.05;;;;;;;;;;5097425;28;20508;-62
2022/01/28 11:35:39;;;;;;;8.63;2.42;;;;;;;;;;5097079;28;20211;-59
2022/01/28 11:38:30;;;;;;;7.55;1.90;;;;;;;;;;5096790;28;20207;-60
2022/01/28 11:40:58;;;;;;;29.83;3.38;;;;;;;;;;5071776;28;20218;-62
2022/01/28 11:43:27;;;;;;;18.05;3.42;;;;;;;;;;5097056;28;20438;-62
2022/01/28 11:46:11;;;;;;;6.68;1.70;;;;;;;;;;5096675;28;20207;-60
2022/01/28 11:48:56;;;;;;;56.28;5.82;;;;;;;;;;5076365;28;20208;-61
2022/01/28 11:51:23;;;;;;;8.65;2.38;;;;;;;;;;5076437;28;20208;-59
2022/01/28 11:53:54;;;;;;;7.78;1.70;;;;;;;;;;5077041;28;20403;-59
2022/01/28 11:56:21;;;;;;;5.47;2.33;;;;;;;;;;5078385;28;20247;-59
2022/01/28 11:58:57;;;;;;;7.22;1.77;;;;;;;;;;5097000;28;20425;-61
2022/01/28 12:01:24;;;;;;;4.65;1.90;;;;;;;;;;5095791;28;20409;-61
2022/01/28 12:03:51;;;;;;;4.80;1.60;;;;;;;;;;5096177;28;20210;-65
2022/01/28 12:06:18;;;;;;;5.20;2.65;;;;;;;;;;5095153;28;20219;-61
2022/01/28 12:08:45;;;;;;;7.10;2.40;;;;;;;;;;5096375;28;20215;-61
2022/01/28 12:11:13;;;;;;;5.72;2.00;;;;;;;;;;5096359;28;20208;-60
2022/01/28 12:13:51;;;;;;;6.13;2.35;;;;;;;;;;5096602;28;20537;-62
2022/01/28 12:16:30;;;;;;;7.35;2.05;;;;;;;;;;5096285;28;20226;-62
2022/01/28 12:18:57;;;;;;;5.75;2.47;;;;;;;;;;5096139;28;20200;-60
2022/01/28 12:21:24;;;;;;;4.45;1.80;;;;;;;;;;5096319;28;20204;-61
2022/01/28 12:23:52;;;;;;;6.85;2.17;;;;;;;;;;5096429;28;20208;-62
2022/01/28 12:26:21;;;;;;;2.45;1.60;;;;;;;;;;5096402;28;20214;-61
2022/01/28 12:28:54;;;;;;;6.22;2.10;;;;;;;;;;5095670;28;20269;-61
2022/01/28 12:31:22;;;;;;;2.67;2.20;;;;;;;;;;5095862;28;20219;-60
2022/01/28 12:33:51;;;;;;;4.50;2.53;;;;;;;;;;5096665;28;20523;-62
2022/01/28 12:36:18;;;;;;;9.60;2.72;;;;;;;;;;5096443;28;20372;-63
2022/01/28 12:38:57;;;;;;;5.22;2.35;;;;;;;;;;5096927;28;20440;-61
2022/01/28 12:41:25;;;;;;;6.57;2.45;;;;;;;;;;5099879;28;20210;-61
2022/01/28 12:43:51;;;;;;;7.45;2.45;;;;;;;;;;5100102;28;20566;-60
2022/01/28 12:46:18;;;;;;;13.75;2.90;;;;;;;;;;5099926;28;20208;-62
2022/01/28 12:48:48;;;;;;;33.40;4.32;;;;;;;;;;5099617;28;20203;-61
2022/01/28 12:51:16;;;;;;;54.78;6.72;;;;;;;;;;5099880;28;20208;-62
2022/01/28 12:53:43;;;;;;;37.47;6.25;;;;;;;;;;5099818;28;20410;-61
2022/01/28 12:56:11;;;;;;;9.13;4.43;;;;;;;;;;5099543;28;20536;-63
2022/01/28 12:58:39;;;;;;;11.63;5.03;;;;;;;;;;5099707;28;20207;-62
2022/01/28 13:01:07;;;;;;;4.20;2.42;;;;;;;;;;5099398;28;20439;-63
2022/01/28 13:03:38;;;;;;;6.65;2.67;;;;;;;;;;5099763;28;20211;-61
2022/01/28 13:06:41;;;;;;;12.02;4.45;;;;;;;;;;5097342;28;20384;-62
2022/01/28 13:09:12;;;;;;;11.45;4.57;;;;;;;;;;5084657;28;20227;-60
2022/01/28 13:11:41;;;;;;;10.55;2.53;;;;;;;;;;5099699;28;20245;-60
2022/01/28 13:14:07;;;;;;;14.73;5.95;;;;;;;;;;5099471;28;20208;-59
2022/01/28 13:16:34;;;;;;;5.63;2.95;;;;;;;;;;5095971;28;20245;-61
2022/01/28 13:19:02;;;;;;;4.47;2.92;;;;;;;;;;5098999;28;20230;-59
2022/01/28 13:21:30;;;;;;;4.05;3.30;;;;;;;;;;5099439;28;20377;-59
2022/01/28 13:24:06;;;;;;;7.47;4.03;;;;;;;;;;5099406;28;20211;-60
2022/01/28 13:26:32;;;;;;;16.02;3.97;;;;;;;;;;5098951;28;20204;-60
2022/01/28 13:29:06;;;;;;;10.93;4.28;;;;;;;;;;5098712;28;20207;-63
2022/01/28 13:31:32;;;;;;;5.75;4.18;;;;;;;;;;5099036;28;20280;-61
2022/01/28 13:33:59;;;;;;;6.22;3.40;;;;;;;;;;5099350;28;20403;-61
2022/01/28 13:36:25;;;;;;;15.80;4.03;;;;;;;;;;5098368;28;20277;-61
2022/01/28 13:38:53;;;;;;;6.68;4.07;;;;;;;;;;5098932;28;20216;-61
2022/01/28 13:41:20;;;;;;;10.52;4.50;;;;;;;;;;5099146;28;20204;-61
2022/01/28 13:43:46;;;;;;;43.00;5.82;;;;;;;;;;5099159;28;20230;-59
2022/01/28 13:46:13;;;;;;;8.57;3.20;;;;;;;;;;5098933;28;20208;-59
2022/01/28 13:48:41;;;;;;;6.82;4.18;;;;;;;;;;5098877;28;20208;-60
2022/01/28 13:51:09;;;;;;;8.52;5.22;;;;;;;;;;5097900;28;20232;-58
2022/01/28 13:54:15;;;;;;;13.30;4.85;;;;;;;;;;5099122;28;20199;-63
2022/01/28 13:56:45;;;;;;;5.68;4.32;;;;;;;;;;5098665;28;20275;-62
2022/01/28 13:59:13;;;;;;;5.07;3.63;;;;;;;;;;5098530;28;20200;-62
2022/01/28 14:01:43;;;;;;;9.60;3.80;;;;;;;;;;5098924;28;20208;-60
2022/01/28 14:04:19;;;;;;;5.35;3.33;;;;;;;;;;5098390;28;20207;-60
2022/01/28 14:06:45;;;;;;;7.70;4.25;;;;;;;;;;5090722;28;20230;-63
2022/01/28 14:09:14;;;;;;;5.65;3.60;;;;;;;;;;5077937;28;20208;-61
2022/01/28 14:11:44;;;;;;;9.88;4.28;;;;;;;;;;5090212;28;20212;-63
2022/01/28 14:14:22;;;;;;;8.13;4.40;;;;;;;;;;5098300;28;20219;-62
2022/01/28 14:16:50;;;;;;;7.50;4.25;;;;;;;;;;5098233;28;20222;-62
2022/01/28 14:19:16;;;;;;;6.15;4.68;;;;;;;;;;5098280;28;20531;-63
2022/01/28 14:21:43;;;;;;;11.43;4.43;;;;;;;;;;5097929;28;20215;-61
2022/01/28 14:24:13;;;;;;;9.63;5.07;;;;;;;;;;5098229;28;20208;-62
2022/01/28 14:26:42;;;;;;;7.32;3.92;;;;;;;;;;5098294;28;20207;-60
2022/01/28 14:31:52;;;;;;;9.65;4.07;;;;;;;;;;5084655;28;20235;-62
2022/01/28 14:34:18;;;;;;;6.93;4.60;;;;;;;;;;5098183;28;20535;-61
2022/01/28 14:36:45;;;;;;;8.02;4.40;;;;;;;;;;5098164;28;20215;-63
2022/01/28 14:39:14;;;;;;;10.00;4.40;;;;;;;;;;5097736;28;20208;-61
2022/01/28 14:41:40;;;;;;;9.15;4.40;;;;;;;;;;5097549;28;20256;-61
2022/01/28 14:44:07;;;;;;;9.30;4.70;;;;;;;;;;5097686;28;20344;-60
2022/01/28 14:46:35;;;;;;;8.05;4.20;;;;;;;;;;5097506;28;20208;-61
2022/01/28 14:49:04;;;;;;;7.78;4.10;;;;;;;;;;5097133;28;20534;-61
2022/01/28 14:51:30;;;;;;;8.88;4.43;;;;;;;;;;5096693;28;20535;-62
2022/01/28 14:53:56;;;;;;;6.03;4.38;;;;;;;;;;5096999;28;20204;-61
2022/01/28 14:56:23;;;;;;;7.78;5.15;;;;;;;;;;5097204;28;20208;-62
2022/01/28 14:58:49;;;;;;;6.50;4.30;;;;;;;;;;5096769;28;20270;-61
2022/01/28 15:01:16;;;;;;;6.05;4.30;;;;;;;;;;5096872;28;20204;-63
2022/01/28 15:03:44;;;;;;;6.65;4.53;;;;;;;;;;5096006;28;20203;-63
2022/01/28 15:06:13;;;;;;;9.73;4.15;;;;;;;;;;5093627;28;20227;-62
2022/01/28 15:08:42;;;;;;;7.70;4.60;;;;;;;;;;5076413;28;20349;-62
2022/01/28 15:11:13;;;;;;;8.52;4.72;;;;;;;;;;5076261;28;20224;-60
2022/01/28 15:13:39;;;;;;;7.90;4.20;;;;;;;;;;5096411;28;20462;-59
2022/01/28 15:16:06;;;;;;;6.55;4.00;;;;;;;;;;5096635;28;20671;-62
2022/01/28 15:18:32;;;;;;;8.73;4.60;;;;;;;;;;5096753;28;20519;-63
2022/01/28 15:21:01;;;;;;;10.23;4.85;;;;;;;;;;5096600;28;20322;-63
2022/01/28 15:23:27;;;;;;;10.30;3.95;;;;;;;;;;5096761;28;20273;-60
2022/01/28 15:25:53;;;;;;;8.73;4.15;;;;;;;;;;5096835;28;20214;-61
2022/01/28 15:28:22;;;;;;;9.25;4.40;;;;;;;;;;5096395;28;20208;-61
2022/01/28 15:36:17;;;;;;;6.40;4.13;;;;;;;;;;5096958;28;20210;-63
2022/01/28 15:38:44;;;;;;;7.35;3.90;;;;;;;;;;5096432;28;20345;-61
2022/01/28 15:41:12;;;;;;;9.63;3.88;;;;;;;;;;5097578;28;20528;-63
2022/01/28 15:43:39;;;;;;;11.32;4.45;;;;;;;;;;5097253;28;20211;-61
2022/01/28 15:46:06;;;;;;;6.05;4.15;;;;;;;;;;5096643;28;20572;-61
2022/01/28 15:48:32;;;;;;;10.82;4.38;;;;;;;;;;5096440;28;20466;-61
2022/01/28 15:50:58;;;;;;;7.03;4.40;;;;;;;;;;5095799;28;20224;-61